createdAt,value
2018-07-20T00:03:08.292Z,76.18
2018-07-20T00:08:17.483Z,76.30
2018-07-20T00:13:26.773Z,77.06
2018-07-20T00:18:36.143Z,77.10
2018-07-20T00:23:45.731Z,77.51
2018-07-20T00:28:55.358Z,77.31
2018-07-20T00:34:03.911Z,77.42
2018-07-20T00:39:12.668Z,77.69
2018-07-20T00:44:21.958Z,78.34
2018-07-20T00:49:31.229Z,79.19
2018-07-20T00:54:40.826Z,78.03
2018-07-20T00:59:49.444Z,77.06
2018-07-20T01:04:58.555Z,77.53
2018-07-20T01:10:10.134Z,78.75
2018-07-20T01:15:19.394Z,79.12
2018-07-20T01:20:28.941Z,79.78
2018-07-20T01:25:37.472Z,79.80
2018-07-20T01:30:46.281Z,79.42
2018-07-20T01:35:55.746Z,79.08
2018-07-20T01:41:04.627Z,79.12
2018-07-20T01:46:13.643Z,80.30
2018-07-20T01:51:23.010Z,80.07
2018-07-20T01:56:32.191Z,80.39
2018-07-20T02:01:41.549Z,80.46
2018-07-20T02:06:50.829Z,80.93
2018-07-20T02:11:59.944Z,81.22
2018-07-20T02:17:08.927Z,81.94
2018-07-20T02:22:18.585Z,82.14
2018-07-20T02:27:27.705Z,82.35
2018-07-20T02:32:36.671Z,82.58
2018-07-20T02:37:45.304Z,83.62
2018-07-20T02:42:54.401Z,84.19
2018-07-20T02:48:03.607Z,84.07
2018-07-20T02:53:13.083Z,84.20
2018-07-20T02:58:22.317Z,84.23
2018-07-20T03:03:32.164Z,84.81
2018-07-20T03:08:41.034Z,84.70
2018-07-20T03:13:50.178Z,85.73
2018-07-20T03:18:59.287Z,85.22
2018-07-20T03:24:07.954Z,84.59
2018-07-20T03:29:17.392Z,84.25
2018-07-20T03:34:26.231Z,84.01
2018-07-20T03:39:35.327Z,82.98
2018-07-20T03:44:44.244Z,82.07
2018-07-20T03:49:53.589Z,81.60
2018-07-20T03:55:02.619Z,80.55
2018-07-20T04:00:12.044Z,79.54
2018-07-20T04:05:21.042Z,78.86
2018-07-20T04:10:30.060Z,77.75
2018-07-20T04:15:38.954Z,76.12
2018-07-20T04:20:48.557Z,75.44
2018-07-20T04:25:57.519Z,74.39
2018-07-20T04:31:07.054Z,73.34
2018-07-20T04:36:16.267Z,68.55
2018-07-20T04:41:25.149Z,50.38
2018-07-20T04:46:34.111Z,42.40
2018-07-20T04:51:43.294Z,39.31
2018-07-20T04:56:56.438Z,35.60
2018-07-20T05:02:05.862Z,35.61
2018-07-20T05:07:14.530Z,34.96
2018-07-20T05:12:23.568Z,32.36
2018-07-20T05:17:32.410Z,31.38
2018-07-20T05:22:41.468Z,31.21
2018-07-20T05:27:50.788Z,32.51
2018-07-20T05:33:00.283Z,27.70
2018-07-20T05:38:09.735Z,28.76
2018-07-20T05:43:18.809Z,30.72
2018-07-20T05:48:27.779Z,30.02
2018-07-20T05:53:36.861Z,26.60
2018-07-20T05:59:05.667Z,27.80
2018-07-20T06:04:15.231Z,30.16
2018-07-20T06:09:24.514Z,30.00
2018-07-20T06:14:33.708Z,27.26
2018-07-20T06:19:42.771Z,24.71
2018-07-20T06:24:51.903Z,25.52
2018-07-20T06:30:01.082Z,24.67
2018-07-20T06:35:10.103Z,24.81
2018-07-20T06:40:19.605Z,22.99
2018-07-20T06:45:29.080Z,23.17
2018-07-20T06:50:37.941Z,22.53
2018-07-20T06:55:47.213Z,20.71
2018-07-20T07:00:56.113Z,23.59
2018-07-20T07:06:05.457Z,21.37
2018-07-20T07:11:14.557Z,22.06
2018-07-20T07:16:23.390Z,21.80
2018-07-20T07:21:32.740Z,22.64
2018-07-20T07:26:42.840Z,22.43
2018-07-20T07:31:52.792Z,24.08
2018-07-20T07:37:01.559Z,24.49
2018-07-20T07:42:10.476Z,22.54
2018-07-20T07:47:19.413Z,26.59
2018-07-20T07:52:28.689Z,30.06
2018-07-20T07:57:37.856Z,31.41
2018-07-20T08:02:46.418Z,30.43
2018-07-20T08:07:55.416Z,29.69
2018-07-20T08:13:04.455Z,27.76
2018-07-20T08:18:13.625Z,28.52
2018-07-20T08:23:22.471Z,28.13
2018-07-20T08:28:31.856Z,26.06
2018-07-20T08:33:41.132Z,22.53
2018-07-20T08:38:49.669Z,22.08
2018-07-20T08:43:58.688Z,23.94
2018-07-20T08:49:07.597Z,22.87
2018-07-20T08:54:16.671Z,22.04
2018-07-20T08:59:26.579Z,21.26
2018-07-20T09:04:35.727Z,21.51
2018-07-20T09:09:44.748Z,22.10
2018-07-20T09:14:53.508Z,21.63
2018-07-20T09:20:02.631Z,22.63
2018-07-20T09:25:11.805Z,23.71
2018-07-20T09:30:20.763Z,21.90
2018-07-20T09:35:29.934Z,23.29
2018-07-20T09:40:39.007Z,23.01
2018-07-20T09:45:48.171Z,22.17
2018-07-20T09:50:57.031Z,20.57
2018-07-20T09:56:06.097Z,22.86
2018-07-20T10:01:15.477Z,21.70
2018-07-20T10:06:24.478Z,21.84
2018-07-20T10:11:34.067Z,23.49
2018-07-20T10:16:43.258Z,20.74
2018-07-20T10:21:52.294Z,23.35
2018-07-20T10:27:01.327Z,23.00
2018-07-20T10:32:10.992Z,22.52
2018-07-20T10:37:20.218Z,22.57
2018-07-20T10:42:29.167Z,24.08
2018-07-20T10:47:38.082Z,23.07
2018-07-20T10:52:47.022Z,23.92
2018-07-20T10:57:56.077Z,24.17
2018-07-20T11:03:04.972Z,22.73
2018-07-20T11:08:13.642Z,24.07
2018-07-20T11:13:22.752Z,24.06
2018-07-20T11:18:31.599Z,25.24
2018-07-20T11:23:41.952Z,26.51
2018-07-20T11:28:51.135Z,25.23
2018-07-20T11:34:00.109Z,25.08
2018-07-20T11:39:09.105Z,23.93
2018-07-20T11:44:18.451Z,25.48
2018-07-20T11:49:27.876Z,24.31
2018-07-20T11:54:36.765Z,24.52
2018-07-20T11:59:45.889Z,24.65
2018-07-20T12:04:54.762Z,25.40
2018-07-20T12:10:03.939Z,24.17
2018-07-20T12:15:13.515Z,24.50
2018-07-20T12:20:22.333Z,24.38
2018-07-20T12:25:31.268Z,23.75
2018-07-20T12:30:40.445Z,24.66
2018-07-20T12:35:49.591Z,23.39
2018-07-20T12:40:59.091Z,23.56
2018-07-20T12:46:07.978Z,25.25
2018-07-20T12:51:17.045Z,24.94
2018-07-20T12:56:26.095Z,25.06
2018-07-20T13:01:34.822Z,27.04
2018-07-20T13:06:44.136Z,24.95
2018-07-20T13:11:53.716Z,25.43
2018-07-20T13:17:03.359Z,24.77
2018-07-20T13:22:12.261Z,26.27
2018-07-20T13:27:21.336Z,25.50
2018-07-20T13:32:30.264Z,25.47
2018-07-20T13:37:39.528Z,24.48
2018-07-20T13:42:49.008Z,25.32
2018-07-20T13:47:58.470Z,24.79
2018-07-20T13:53:07.590Z,23.39
2018-07-20T13:58:16.657Z,23.28
2018-07-20T14:03:25.790Z,24.58
2018-07-20T14:08:35.320Z,24.15
2018-07-20T14:13:43.963Z,24.28
2018-07-20T14:18:53.278Z,24.45
2018-07-20T14:24:02.255Z,23.12
2018-07-20T14:29:11.125Z,23.52
2018-07-20T14:34:20.303Z,25.16
2018-07-20T14:39:29.805Z,25.58
2018-07-20T14:44:38.961Z,22.68
2018-07-20T14:49:48.338Z,23.78
2018-07-20T14:54:57.538Z,24.30
2018-07-20T15:00:06.627Z,23.02
2018-07-20T15:05:16.891Z,23.59
2018-07-20T15:10:25.576Z,22.61
2018-07-20T15:15:35.121Z,25.29
2018-07-20T15:20:44.708Z,25.49
2018-07-20T15:25:53.922Z,24.71
2018-07-20T15:31:02.861Z,24.12
2018-07-20T15:36:12.717Z,24.72
2018-07-20T15:41:21.720Z,24.54
2018-07-20T15:46:31.237Z,24.30
2018-07-20T15:53:35.206Z,24.17
2018-07-20T15:56:49.462Z,24.15
2018-07-20T16:01:58.562Z,24.45
2018-07-20T16:07:08.115Z,24.94
2018-07-20T16:12:17.767Z,25.64
2018-07-20T16:17:27.206Z,25.37
2018-07-20T16:22:36.187Z,25.91
2018-07-20T16:27:45.182Z,27.35
2018-07-20T16:32:54.401Z,26.94
2018-07-20T16:38:03.957Z,26.56
2018-07-20T16:43:13.538Z,26.67
2018-07-20T16:48:22.518Z,27.25
2018-07-20T16:53:31.795Z,27.37
2018-07-20T16:58:40.764Z,27.77
2018-07-20T17:03:50.452Z,27.41
2018-07-20T17:08:59.638Z,27.22
2018-07-20T17:14:09.247Z,27.86
2018-07-20T17:19:18.248Z,28.73
2018-07-20T17:24:28.102Z,28.50
2018-07-20T17:29:38.360Z,28.13
2018-07-20T17:34:48.011Z,30.65
2018-07-20T17:39:56.699Z,28.95
2018-07-20T17:45:05.968Z,28.01
2018-07-20T17:50:15.059Z,28.92
2018-07-20T18:00:31.046Z,28.87
2018-07-20T18:05:40.203Z,30.23
2018-07-20T18:10:49.846Z,30.02
2018-07-20T18:15:58.584Z,31.00
2018-07-20T18:21:08.098Z,32.36
2018-07-20T18:30:32.991Z,34.52
2018-07-20T18:35:41.912Z,37.34
2018-07-20T18:40:51.165Z,35.66
2018-07-20T18:46:00.495Z,36.70
2018-07-20T18:54:08.619Z,37.99
2018-07-20T18:59:17.463Z,38.49
2018-07-20T19:04:26.792Z,39.21
2018-07-20T19:09:36.091Z,41.03
2018-07-20T19:14:45.410Z,42.54
2018-07-20T19:19:54.630Z,44.71
2018-07-20T19:25:03.797Z,41.76
2018-07-20T19:30:12.806Z,40.71
2018-07-20T19:35:21.976Z,39.33
2018-07-20T19:40:31.201Z,40.10
2018-07-20T19:45:40.236Z,39.36
2018-07-20T19:50:49.389Z,40.61
2018-07-20T19:55:58.184Z,40.21
2018-07-20T20:01:07.509Z,38.77
2018-07-20T20:06:16.888Z,38.26
2018-07-20T20:11:25.478Z,38.59
2018-07-20T20:16:34.964Z,39.42
2018-07-20T20:21:43.671Z,38.87
2018-07-20T20:26:52.425Z,38.57
2018-07-20T20:32:01.001Z,40.38
2018-07-20T20:37:10.449Z,42.06
2018-07-20T20:42:19.157Z,41.89
2018-07-20T20:47:28.137Z,43.07
2018-07-20T20:52:38.050Z,43.14
2018-07-20T20:57:46.796Z,45.88
2018-07-20T21:02:55.382Z,44.68
2018-07-20T21:08:04.083Z,44.67
2018-07-20T21:13:13.311Z,44.72
2018-07-20T21:18:22.619Z,44.53
2018-07-20T21:23:31.153Z,45.72
2018-07-20T21:28:43.052Z,44.35
2018-07-20T21:33:51.738Z,47.15
2018-07-20T21:39:01.183Z,47.63
2018-07-20T21:44:13.868Z,49.89
2018-07-20T21:49:25.976Z,51.61
2018-07-20T21:54:35.423Z,52.88
2018-07-20T21:59:44.572Z,53.58
2018-07-20T22:04:53.913Z,53.71
2018-07-20T22:10:03.317Z,54.52
2018-07-20T22:15:12.377Z,53.15
2018-07-20T22:20:22.078Z,53.57
2018-07-20T22:25:30.939Z,54.69
2018-07-20T22:30:40.022Z,55.56
2018-07-20T22:35:48.994Z,58.07
2018-07-20T22:40:57.993Z,56.45
2018-07-20T22:46:07.103Z,56.89
2018-07-20T22:51:16.150Z,55.81
2018-07-20T23:01:41.666Z,49.88
2018-07-20T23:06:50.903Z,50.30
2018-07-20T23:11:59.852Z,50.29
2018-07-20T23:17:09.044Z,53.10
2018-07-20T23:22:18.454Z,55.53
2018-07-20T23:27:27.060Z,57.75
2018-07-20T23:32:35.638Z,58.57
2018-07-20T23:38:22.200Z,60.86
2018-07-20T23:43:33.607Z,60.63
2018-07-20T23:48:42.873Z,60.76
2018-07-20T23:53:51.873Z,60.82
2018-07-20T23:59:01.277Z,61.20
